sensor_id;sensor_type;location;lat;lon;timestamp;pressure;altitude;pressure_sealevel;temperature;humidity
10978;BME280;5542;48.272;10.794;2023-07-13T00:02:17;95708.38;;;19.85;96.23
10978;BME280;5542;48.272;10.794;2023-07-13T00:04:43;95707.00;;;19.87;95.88
10978;BME280;5542;48.272;10.794;2023-07-13T00:07:10;95709.50;;;19.79;96.84
10978;BME280;5542;48.272;10.794;2023-07-13T00:09:39;95701.16;;;19.66;98.45
10978;BME280;5542;48.272;10.794;2023-07-13T00:12:22;95701.66;;;19.68;99.70
10978;BME280;5542;48.272;10.794;2023-07-13T00:14:49;95701.25;;;19.80;97.33
10978;BME280;5542;48.272;10.794;2023-07-13T00:17:17;95695.13;;;19.80;97.54
10978;BME280;5542;48.272;10.794;2023-07-13T00:19:43;95697.03;;;19.74;98.84
10978;BME280;5542;48.272;10.794;2023-07-13T00:22:10;95688.31;;;19.87;97.51
10978;BME280;5542;48.272;10.794;2023-07-13T00:24:36;95691.34;;;19.81;98.05
10978;BME280;5542;48.272;10.794;2023-07-13T00:27:07;95698.28;;;19.82;97.90
10978;BME280;5542;48.272;10.794;2023-07-13T00:29:33;95707.31;;;19.86;96.97
10978;BME280;5542;48.272;10.794;2023-07-13T00:32:00;95700.88;;;19.87;97.16
10978;BME280;5542;48.272;10.794;2023-07-13T00:34:28;95706.78;;;19.84;96.81
10978;BME280;5542;48.272;10.794;2023-07-13T00:36:54;95702.19;;;19.89;95.85
10978;BME280;5542;48.272;10.794;2023-07-13T00:39:21;95702.06;;;20.00;94.29
10978;BME280;5542;48.272;10.794;2023-07-13T00:41:48;95707.47;;;19.94;94.29
10978;BME280;5542;48.272;10.794;2023-07-13T00:44:15;95707.56;;;19.84;94.78
10978;BME280;5542;48.272;10.794;2023-07-13T00:46:42;95699.78;;;19.88;94.90
10978;BME280;5542;48.272;10.794;2023-07-13T00:49:12;95686.28;;;19.79;94.85
10978;BME280;5542;48.272;10.794;2023-07-13T00:51:55;95704.78;;;19.76;95.32
10978;BME280;5542;48.272;10.794;2023-07-13T00:54:26;95700.00;;;19.73;96.18
10978;BME280;5542;48.272;10.794;2023-07-13T00:56:58;95698.66;;;19.94;94.12
10978;BME280;5542;48.272;10.794;2023-07-13T00:59:25;95692.94;;;19.82;94.51
10978;BME280;5542;48.272;10.794;2023-07-13T01:01:52;95669.00;;;19.77;94.46
10978;BME280;5542;48.272;10.794;2023-07-13T01:04:19;95676.28;;;19.71;94.60
10978;BME280;5542;48.272;10.794;2023-07-13T01:06:47;95686.09;;;19.76;94.04
10978;BME280;5542;48.272;10.794;2023-07-13T01:09:14;95689.81;;;19.75;94.15
10978;BME280;5542;48.272;10.794;2023-07-13T01:11:42;95688.16;;;19.79;93.77
10978;BME280;5542;48.272;10.794;2023-07-13T01:14:10;95685.06;;;19.72;93.33
10978;BME280;5542;48.272;10.794;2023-07-13T01:16:38;95684.34;;;19.66;94.00
10978;BME280;5542;48.272;10.794;2023-07-13T01:19:12;95687.28;;;19.64;94.31
10978;BME280;5542;48.272;10.794;2023-07-13T01:21:44;95692.41;;;19.61;94.81
10978;BME280;5542;48.272;10.794;2023-07-13T01:24:16;95688.91;;;19.65;94.91
10978;BME280;5542;48.272;10.794;2023-07-13T01:26:42;95683.56;;;19.65;95.26
10978;BME280;5542;48.272;10.794;2023-07-13T01:29:09;95676.28;;;19.71;95.19
10978;BME280;5542;48.272;10.794;2023-07-13T01:31:35;95674.09;;;19.73;94.55
10978;BME280;5542;48.272;10.794;2023-07-13T01:34:02;95677.78;;;19.77;94.10
10978;BME280;5542;48.272;10.794;2023-07-13T01:36:28;95686.53;;;19.83;92.79
10978;BME280;5542;48.272;10.794;2023-07-13T01:38:56;95691.53;;;19.89;92.07
10978;BME280;5542;48.272;10.794;2023-07-13T01:41:23;95691.78;;;19.88;91.53
10978;BME280;5542;48.272;10.794;2023-07-13T01:43:49;95696.97;;;19.79;92.91
10978;BME280;5542;48.272;10.794;2023-07-13T01:46:16;95695.28;;;19.64;93.11
10978;BME280;5542;48.272;10.794;2023-07-13T01:48:42;95701.75;;;19.58;94.14
10978;BME280;5542;48.272;10.794;2023-07-13T01:51:09;95697.41;;;19.67;93.77
10978;BME280;5542;48.272;10.794;2023-07-13T01:53:35;95698.13;;;19.73;92.84
10978;BME280;5542;48.272;10.794;2023-07-13T01:56:03;95683.75;;;19.69;92.64
10978;BME280;5542;48.272;10.794;2023-07-13T01:58:30;95691.13;;;19.53;93.47
10978;BME280;5542;48.272;10.794;2023-07-13T02:00:56;95698.34;;;19.53;93.38
10978;BME280;5542;48.272;10.794;2023-07-13T02:03:23;95691.75;;;19.45;94.59
10978;BME280;5542;48.272;10.794;2023-07-13T02:05:49;95678.38;;;19.50;93.57
10978;BME280;5542;48.272;10.794;2023-07-13T02:08:16;95687.22;;;19.45;93.09
10978;BME280;5542;48.272;10.794;2023-07-13T02:10:42;95682.41;;;19.48;91.69
10978;BME280;5542;48.272;10.794;2023-07-13T02:13:11;95693.41;;;19.41;92.91
10978;BME280;5542;48.272;10.794;2023-07-13T02:15:38;95689.94;;;19.40;91.88
10978;BME280;5542;48.272;10.794;2023-07-13T02:18:06;95702.09;;;19.52;90.41
10978;BME280;5542;48.272;10.794;2023-07-13T02:20:32;95702.97;;;19.47;90.06
10978;BME280;5542;48.272;10.794;2023-07-13T02:22:59;95707.94;;;19.30;91.62
10978;BME280;5542;48.272;10.794;2023-07-13T02:25:25;95709.25;;;19.32;91.11
10978;BME280;5542;48.272;10.794;2023-07-13T02:27:52;95708.56;;;19.22;91.64
10978;BME280;5542;48.272;10.794;2023-07-13T02:30:20;95705.22;;;19.11;92.08
10978;BME280;5542;48.272;10.794;2023-07-13T02:32:49;95705.81;;;19.03;93.62
10978;BME280;5542;48.272;10.794;2023-07-13T02:35:16;95715.63;;;19.07;93.99
10978;BME280;5542;48.272;10.794;2023-07-13T02:37:43;95716.91;;;19.15;93.09
10978;BME280;5542;48.272;10.794;2023-07-13T02:40:09;95717.41;;;19.17;92.56
10978;BME280;5542;48.272;10.794;2023-07-13T02:42:36;95724.34;;;19.18;92.62
10978;BME280;5542;48.272;10.794;2023-07-13T02:45:03;95725.09;;;19.24;92.45
10978;BME280;5542;48.272;10.794;2023-07-13T02:47:31;95725.25;;;19.32;90.94
10978;BME280;5542;48.272;10.794;2023-07-13T02:49:58;95730.06;;;19.30;90.32
10978;BME280;5542;48.272;10.794;2023-07-13T02:52:25;95733.09;;;19.24;90.88
10978;BME280;5542;48.272;10.794;2023-07-13T02:54:51;95729.09;;;19.21;90.59
10978;BME280;5542;48.272;10.794;2023-07-13T02:57:18;95722.72;;;19.17;90.89
10978;BME280;5542;48.272;10.794;2023-07-13T02:59:44;95736.34;;;19.15;91.21
10978;BME280;5542;48.272;10.794;2023-07-13T03:02:11;95736.06;;;19.17;91.41
10978;BME280;5542;48.272;10.794;2023-07-13T03:04:39;95733.97;;;19.14;91.38
10978;BME280;5542;48.272;10.794;2023-07-13T03:07:06;95732.09;;;19.14;91.36
10978;BME280;5542;48.272;10.794;2023-07-13T03:09:34;95737.94;;;19.16;91.11
10978;BME280;5542;48.272;10.794;2023-07-13T03:12:01;95735.28;;;19.16;90.93
10978;BME280;5542;48.272;10.794;2023-07-13T03:14:28;95736.06;;;19.17;90.87
10978;BME280;5542;48.272;10.794;2023-07-13T03:16:55;95740.66;;;19.11;91.03
10978;BME280;5542;48.272;10.794;2023-07-13T03:19:22;95744.91;;;19.12;91.47
10978;BME280;5542;48.272;10.794;2023-07-13T03:21:50;95740.09;;;19.14;91.51
10978;BME280;5542;48.272;10.794;2023-07-13T03:24:16;95734.47;;;19.16;91.58
10978;BME280;5542;48.272;10.794;2023-07-13T03:26:43;95736.00;;;19.22;91.25
10978;BME280;5542;48.272;10.794;2023-07-13T03:29:09;95728.53;;;19.24;90.57
10978;BME280;5542;48.272;10.794;2023-07-13T03:31:36;95739.19;;;19.24;90.41
10978;BME280;5542;48.272;10.794;2023-07-13T03:34:03;95749.28;;;19.27;89.19
10978;BME280;5542;48.272;10.794;2023-07-13T03:36:31;95748.53;;;19.22;89.65
10978;BME280;5542;48.272;10.794;2023-07-13T03:39:01;95752.78;;;19.28;89.39
10978;BME280;5542;48.272;10.794;2023-07-13T03:41:29;95766.38;;;19.26;89.01
10978;BME280;5542;48.272;10.794;2023-07-13T03:43:55;95764.50;;;19.27;88.63
10978;BME280;5542;48.272;10.794;2023-07-13T03:46:22;95762.41;;;19.24;88.90
10978;BME280;5542;48.272;10.794;2023-07-13T03:48:48;95761.31;;;19.25;88.93
10978;BME280;5542;48.272;10.794;2023-07-13T03:51:16;95772.03;;;19.19;88.85
10978;BME280;5542;48.272;10.794;2023-07-13T03:53:45;95770.16;;;19.20;89.31
10978;BME280;5542;48.272;10.794;2023-07-13T03:56:14;95775.78;;;19.18;89.46
10978;BME280;5542;48.272;10.794;2023-07-13T03:58:42;95780.03;;;19.19;89.35
10978;BME280;5542;48.272;10.794;2023-07-13T04:01:10;95781.63;;;19.21;89.36
10978;BME280;5542;48.272;10.794;2023-07-13T04:03:37;95782.72;;;19.19;89.43
10978;BME280;5542;48.272;10.794;2023-07-13T04:06:05;95785.88;;;19.22;89.06
10978;BME280;5542;48.272;10.794;2023-07-13T04:08:34;95787.47;;;19.23;89.34
10978;BME280;5542;48.272;10.794;2023-07-13T04:11:01;95782.66;;;19.25;88.77
10978;BME280;5542;48.272;10.794;2023-07-13T04:13:29;95781.63;;;19.21;88.61
10978;BME280;5542;48.272;10.794;2023-07-13T04:15:56;95790.75;;;19.14;88.76
10978;BME280;5542;48.272;10.794;2023-07-13T04:18:22;95793.69;;;19.13;89.42
10978;BME280;5542;48.272;10.794;2023-07-13T04:20:50;95800.88;;;19.12;89.80
10978;BME280;5542;48.272;10.794;2023-07-13T04:23:17;95801.66;;;19.18;89.46
10978;BME280;5542;48.272;10.794;2023-07-13T04:25:44;95797.63;;;19.21;88.84
10978;BME280;5542;48.272;10.794;2023-07-13T04:28:10;95805.13;;;19.18;88.67
10978;BME280;5542;48.272;10.794;2023-07-13T04:30:38;95812.59;;;19.16;88.42
10978;BME280;5542;48.272;10.794;2023-07-13T04:33:05;95816.31;;;19.15;88.66
10978;BME280;5542;48.272;10.794;2023-07-13T04:35:31;95813.38;;;19.17;88.11
10978;BME280;5542;48.272;10.794;2023-07-13T04:37:58;95815.25;;;19.16;86.62
10978;BME280;5542;48.272;10.794;2023-07-13T04:40:26;95820.13;;;19.09;87.08
10978;BME280;5542;48.272;10.794;2023-07-13T04:42:53;95820.97;;;19.05;87.02
10978;BME280;5542;48.272;10.794;2023-07-13T04:45:19;95820.13;;;19.09;85.94
10978;BME280;5542;48.272;10.794;2023-07-13T04:47:47;95815.09;;;19.03;86.29
10978;BME280;5542;48.272;10.794;2023-07-13T04:50:14;95827.66;;;18.97;86.37
10978;BME280;5542;48.272;10.794;2023-07-13T04:52:45;95824.75;;;18.93;86.22
10978;BME280;5542;48.272;10.794;2023-07-13T04:55:11;95823.16;;;18.92;86.72
10978;BME280;5542;48.272;10.794;2023-07-13T04:57:38;95821.84;;;18.95;87.23
10978;BME280;5542;48.272;10.794;2023-07-13T05:00:05;95824.97;;;19.02;87.20
10978;BME280;5542;48.272;10.794;2023-07-13T05:02:33;95825.53;;;18.99;86.84
10978;BME280;5542;48.272;10.794;2023-07-13T05:05:02;95825.53;;;18.99;87.23
10978;BME280;5542;48.272;10.794;2023-07-13T05:07:29;95819.63;;;19.02;87.63
10978;BME280;5542;48.272;10.794;2023-07-13T05:09:55;95816.97;;;19.02;87.84
10978;BME280;5542;48.272;10.794;2023-07-13T05:12:22;95828.66;;;19.06;88.25
10978;BME280;5542;48.272;10.794;2023-07-13T05:14:48;95820.63;;;19.11;88.65
10978;BME280;5542;48.272;10.794;2023-07-13T05:17:15;95822.75;;;19.14;88.88
10978;BME280;5542;48.272;10.794;2023-07-13T05:19:41;95822.13;;;19.23;88.73
10978;BME280;5542;48.272;10.794;2023-07-13T05:22:09;95821.00;;;19.29;85.91
10978;BME280;5542;48.272;10.794;2023-07-13T05:24:36;95821.63;;;19.21;85.32
10978;BME280;5542;48.272;10.794;2023-07-13T05:27:03;95824.63;;;19.14;85.48
10978;BME280;5542;48.272;10.794;2023-07-13T05:29:29;95827.03;;;19.10;84.75
10978;BME280;5542;48.272;10.794;2023-07-13T05:31:56;95825.25;;;19.01;85.32
10978;BME280;5542;48.272;10.794;2023-07-13T05:34:22;95827.13;;;19.00;84.96
10978;BME280;5542;48.272;10.794;2023-07-13T05:36:49;95832.69;;;19.04;85.28
10978;BME280;5542;48.272;10.794;2023-07-13T05:39:17;95831.03;;;19.08;84.70
10978;BME280;5542;48.272;10.794;2023-07-13T05:41:44;95831.84;;;19.08;84.79
10978;BME280;5542;48.272;10.794;2023-07-13T05:44:11;95838.03;;;19.04;84.60
10978;BME280;5542;48.272;10.794;2023-07-13T05:46:37;95847.88;;;19.03;84.14
10978;BME280;5542;48.272;10.794;2023-07-13T05:49:04;95845.78;;;19.00;84.72
10978;BME280;5542;48.272;10.794;2023-07-13T05:51:30;95852.78;;;18.91;84.93
10978;BME280;5542;48.272;10.794;2023-07-13T05:53:57;95863.69;;;18.95;84.76
10978;BME280;5542;48.272;10.794;2023-07-13T05:56:24;95863.97;;;18.88;85.38
10978;BME280;5542;48.272;10.794;2023-07-13T05:58:51;95866.13;;;18.86;85.51
10978;BME280;5542;48.272;10.794;2023-07-13T06:01:18;95866.88;;;18.91;85.64
10978;BME280;5542;48.272;10.794;2023-07-13T06:03:45;95862.34;;;18.92;85.07
10978;BME280;5542;48.272;10.794;2023-07-13T06:06:12;95868.81;;;18.86;84.72
10978;BME280;5542;48.272;10.794;2023-07-13T06:08:39;95870.63;;;18.90;83.84
10978;BME280;5542;48.272;10.794;2023-07-13T06:11:07;95868.56;;;18.82;84.52
10978;BME280;5542;48.272;10.794;2023-07-13T06:13:35;95877.59;;;18.86;83.64
10978;BME280;5542;48.272;10.794;2023-07-13T06:16:02;95879.16;;;18.87;83.48
10978;BME280;5542;48.272;10.794;2023-07-13T06:18:30;95886.88;;;18.89;83.38
10978;BME280;5542;48.272;10.794;2023-07-13T06:20:57;95881.63;;;18.79;84.07
10978;BME280;5542;48.272;10.794;2023-07-13T06:23:24;95884.88;;;18.65;83.52
10978;BME280;5542;48.272;10.794;2023-07-13T06:25:50;95886.59;;;18.41;82.29
10978;BME280;5542;48.272;10.794;2023-07-13T06:28:17;95886.34;;;18.32;81.56
10978;BME280;5542;48.272;10.794;2023-07-13T06:30:45;95881.88;;;18.23;82.03
10978;BME280;5542;48.272;10.794;2023-07-13T06:33:11;95884.28;;;18.24;82.60
10978;BME280;5542;48.272;10.794;2023-07-13T06:35:38;95891.44;;;18.29;82.22
10978;BME280;5542;48.272;10.794;2023-07-13T06:38:04;95890.88;;;18.32;82.27
10978;BME280;5542;48.272;10.794;2023-07-13T06:40:31;95891.94;;;18.36;82.42
10978;BME280;5542;48.272;10.794;2023-07-13T06:42:57;95895.66;;;18.40;82.97
10978;BME280;5542;48.272;10.794;2023-07-13T06:45:24;95900.41;;;18.48;83.08
10978;BME280;5542;48.272;10.794;2023-07-13T06:47:52;95897.97;;;18.62;81.12
10978;BME280;5542;48.272;10.794;2023-07-13T06:50:18;95910.19;;;18.63;80.53
10978;BME280;5542;48.272;10.794;2023-07-13T06:52:45;95905.09;;;18.77;78.52
10978;BME280;5542;48.272;10.794;2023-07-13T06:55:11;95905.94;;;18.62;79.54
10978;BME280;5542;48.272;10.794;2023-07-13T06:57:38;95906.00;;;18.52;80.75
10978;BME280;5542;48.272;10.794;2023-07-13T07:00:05;95918.16;;;18.68;79.36
10978;BME280;5542;48.272;10.794;2023-07-13T07:02:35;95914.16;;;18.65;74.63
10978;BME280;5542;48.272;10.794;2023-07-13T07:05:03;95912.88;;;18.63;75.32
10978;BME280;5542;48.272;10.794;2023-07-13T07:07:30;95921.13;;;18.61;73.95
10978;BME280;5542;48.272;10.794;2023-07-13T07:09:56;95925.38;;;18.62;74.54
10978;BME280;5542;48.272;10.794;2023-07-13T07:12:23;95931.25;;;18.59;74.24
10978;BME280;5542;48.272;10.794;2023-07-13T07:14:49;95927.75;;;18.74;72.94
10978;BME280;5542;48.272;10.794;2023-07-13T07:17:16;95924.56;;;18.72;73.80
10978;BME280;5542;48.272;10.794;2023-07-13T07:19:42;95924.00;;;18.80;72.80
10978;BME280;5542;48.272;10.794;2023-07-13T07:22:10;95923.09;;;18.95;73.69
10978;BME280;5542;48.272;10.794;2023-07-13T07:24:37;95933.50;;;18.91;72.65
10978;BME280;5542;48.272;10.794;2023-07-13T07:27:04;95927.88;;;18.98;72.80
10978;BME280;5542;48.272;10.794;2023-07-13T07:29:30;95940.09;;;19.04;73.75
10978;BME280;5542;48.272;10.794;2023-07-13T07:31:58;95939.16;;;19.24;71.49
10978;BME280;5542;48.272;10.794;2023-07-13T07:34:25;95946.88;;;19.26;71.82
10978;BME280;5542;48.272;10.794;2023-07-13T07:36:53;95942.78;;;19.38;70.21
10978;BME280;5542;48.272;10.794;2023-07-13T07:39:21;95944.25;;;19.55;67.92
10978;BME280;5542;48.272;10.794;2023-07-13T07:41:47;95945.13;;;19.45;69.23
10978;BME280;5542;48.272;10.794;2023-07-13T07:44:14;95946.22;;;19.44;70.84
10978;BME280;5542;48.272;10.794;2023-07-13T07:46:40;95944.84;;;19.52;70.57
10978;BME280;5542;48.272;10.794;2023-07-13T07:49:07;95948.22;;;19.62;71.10
10978;BME280;5542;48.272;10.794;2023-07-13T07:51:33;95950.56;;;19.69;71.53
10978;BME280;5542;48.272;10.794;2023-07-13T07:54:00;95950.75;;;19.78;71.37
10978;BME280;5542;48.272;10.794;2023-07-13T07:56:28;95951.25;;;19.85;70.98
10978;BME280;5542;48.272;10.794;2023-07-13T07:58:54;95952.41;;;19.74;71.96
10978;BME280;5542;48.272;10.794;2023-07-13T08:01:21;95946.81;;;19.70;72.34
10978;BME280;5542;48.272;10.794;2023-07-13T08:03:48;95948.19;;;19.67;73.19
10978;BME280;5542;48.272;10.794;2023-07-13T08:06:14;95946.03;;;19.69;73.65
10978;BME280;5542;48.272;10.794;2023-07-13T08:08:41;95950.56;;;19.69;75.01
10978;BME280;5542;48.272;10.794;2023-07-13T08:11:08;95959.59;;;19.73;75.33
10978;BME280;5542;48.272;10.794;2023-07-13T08:13:37;95953.03;;;19.94;75.39
10978;BME280;5542;48.272;10.794;2023-07-13T08:16:05;95959.06;;;20.05;73.25
10978;BME280;5542;48.272;10.794;2023-07-13T08:18:32;95962.75;;;20.09;73.47
10978;BME280;5542;48.272;10.794;2023-07-13T08:21:03;95958.22;;;20.10;72.73
10978;BME280;5542;48.272;10.794;2023-07-13T08:23:30;95961.13;;;20.13;74.17
10978;BME280;5542;48.272;10.794;2023-07-13T08:25:57;95965.91;;;20.11;73.36
10978;BME280;5542;48.272;10.794;2023-07-13T08:28:26;95963.94;;;20.22;73.35
10978;BME280;5542;48.272;10.794;2023-07-13T08:30:55;95961.63;;;20.39;71.13
10978;BME280;5542;48.272;10.794;2023-07-13T08:33:26;95966.72;;;20.36;72.65
10978;BME280;5542;48.272;10.794;2023-07-13T08:35:52;95971.38;;;20.54;71.90
10978;BME280;5542;48.272;10.794;2023-07-13T08:38:19;95964.59;;;20.62;68.80
10978;BME280;5542;48.272;10.794;2023-07-13T08:40:50;95965.75;;;20.75;66.26
10978;BME280;5542;48.272;10.794;2023-07-13T08:43:20;95964.91;;;20.98;67.77
10978;BME280;5542;48.272;10.794;2023-07-13T08:45:53;95965.44;;;21.19;63.90
10978;BME280;5542;48.272;10.794;2023-07-13T08:48:26;95963.06;;;21.17;61.90
10978;BME280;5542;48.272;10.794;2023-07-13T08:50:57;95969.63;;;21.06;64.77
10978;BME280;5542;48.272;10.794;2023-07-13T08:53:30;95970.72;;;21.05;65.61
10978;BME280;5542;48.272;10.794;2023-07-13T08:56:00;95970.19;;;21.22;60.69
10978;BME280;5542;48.272;10.794;2023-07-13T08:58:28;95979.91;;;21.18;61.58
10978;BME280;5542;48.272;10.794;2023-07-13T09:00:59;95974.34;;;21.14;63.87
10978;BME280;5542;48.272;10.794;2023-07-13T09:03:35;95974.19;;;21.25;60.06
10978;BME280;5542;48.272;10.794;2023-07-13T09:06:04;95973.31;;;21.10;60.82
10978;BME280;5542;48.272;10.794;2023-07-13T09:08:38;95976.78;;;21.30;60.36
10978;BME280;5542;48.272;10.794;2023-07-13T09:11:14;95976.38;;;21.22;61.11
10978;BME280;5542;48.272;10.794;2023-07-13T09:13:55;95968.63;;;21.21;60.71
10978;BME280;5542;48.272;10.794;2023-07-13T09:16:26;95978.97;;;21.46;60.15
10978;BME280;5542;48.272;10.794;2023-07-13T09:18:56;95972.63;;;21.42;58.69
10978;BME280;5542;48.272;10.794;2023-07-13T09:21:28;95977.97;;;21.42;60.24
10978;BME280;5542;48.272;10.794;2023-07-13T09:24:01;95978.66;;;21.29;61.66
10978;BME280;5542;48.272;10.794;2023-07-13T09:26:29;95980.56;;;21.29;62.71
10978;BME280;5542;48.272;10.794;2023-07-13T09:29:01;95982.94;;;21.30;61.55
10978;BME280;5542;48.272;10.794;2023-07-13T09:31:33;95982.50;;;21.23;61.34
10978;BME280;5542;48.272;10.794;2023-07-13T09:34:06;95990.00;;;21.21;61.48
10978;BME280;5542;48.272;10.794;2023-07-13T09:36:35;95979.13;;;21.36;60.16
10978;BME280;5542;48.272;10.794;2023-07-13T09:39:04;95987.94;;;21.56;58.18
10978;BME280;5542;48.272;10.794;2023-07-13T09:41:37;95979.03;;;21.60;58.98
10978;BME280;5542;48.272;10.794;2023-07-13T09:44:09;95983.00;;;21.63;61.49
10978;BME280;5542;48.272;10.794;2023-07-13T09:46:37;95986.69;;;21.67;60.52
10978;BME280;5542;48.272;10.794;2023-07-13T09:49:05;95986.13;;;21.70;59.95
10978;BME280;5542;48.272;10.794;2023-07-13T09:51:34;95981.56;;;21.70;60.89
10978;BME280;5542;48.272;10.794;2023-07-13T09:54:00;95982.22;;;21.95;58.04
10978;BME280;5542;48.272;10.794;2023-07-13T09:56:28;95982.09;;;22.19;58.69
10978;BME280;5542;48.272;10.794;2023-07-13T09:58:56;95978.53;;;22.51;54.22
10978;BME280;5542;48.272;10.794;2023-07-13T10:01:34;95981.50;;;22.36;58.44
10978;BME280;5542;48.272;10.794;2023-07-13T10:04:01;95986.38;;;22.34;58.68
10978;BME280;5542;48.272;10.794;2023-07-13T10:06:29;95985.47;;;22.52;58.94
10978;BME280;5542;48.272;10.794;2023-07-13T10:08:56;95986.66;;;22.73;59.35
10978;BME280;5542;48.272;10.794;2023-07-13T10:11:26;95977.88;;;23.23;50.39
10978;BME280;5542;48.272;10.794;2023-07-13T10:13:56;95984.31;;;23.58;49.85
10978;BME280;5542;48.272;10.794;2023-07-13T10:16:24;95975.75;;;24.01;47.61
10978;BME280;5542;48.272;10.794;2023-07-13T10:18:54;95970.34;;;24.23;45.29
10978;BME280;5542;48.272;10.794;2023-07-13T10:21:23;95978.19;;;24.11;50.52
10978;BME280;5542;48.272;10.794;2023-07-13T10:23:57;95980.13;;;24.42;45.88
10978;BME280;5542;48.272;10.794;2023-07-13T10:26:30;95988.91;;;24.34;46.96
10978;BME280;5542;48.272;10.794;2023-07-13T10:29:01;95981.56;;;24.48;44.43
10978;BME280;5542;48.272;10.794;2023-07-13T10:31:31;95984.94;;;24.62;45.05
10978;BME280;5542;48.272;10.794;2023-07-13T10:33:57;95973.06;;;24.55;40.92
10978;BME280;5542;48.272;10.794;2023-07-13T10:36:31;95964.84;;;24.60;39.71
10978;BME280;5542;48.272;10.794;2023-07-13T10:39:03;95970.66;;;24.53;41.44
10978;BME280;5542;48.272;10.794;2023-07-13T10:41:33;95971.91;;;24.47;41.41
10978;BME280;5542;48.272;10.794;2023-07-13T10:44:02;95975.97;;;24.36;43.18
10978;BME280;5542;48.272;10.794;2023-07-13T10:46:30;95976.69;;;24.50;42.14
10978;BME280;5542;48.272;10.794;2023-07-13T10:48:59;95969.03;;;24.83;41.71
10978;BME280;5542;48.272;10.794;2023-07-13T10:51:28;95970.88;;;24.83;42.40
10978;BME280;5542;48.272;10.794;2023-07-13T10:54:18;95972.19;;;24.94;42.89
10978;BME280;5542;48.272;10.794;2023-07-13T10:56:50;95969.88;;;25.18;41.20
10978;BME280;5542;48.272;10.794;2023-07-13T10:59:23;95966.06;;;25.54;40.19
10978;BME280;5542;48.272;10.794;2023-07-13T11:01:55;95954.22;;;25.64;38.60
10978;BME280;5542;48.272;10.794;2023-07-13T11:04:23;95957.22;;;25.79;37.78
10978;BME280;5542;48.272;10.794;2023-07-13T11:06:57;95966.53;;;25.82;38.60
10978;BME280;5542;48.272;10.794;2023-07-13T11:09:35;95957.53;;;25.69;37.20
10978;BME280;5542;48.272;10.794;2023-07-13T11:12:07;95959.94;;;25.45;39.00
10978;BME280;5542;48.272;10.794;2023-07-13T11:14:42;95955.47;;;25.58;36.11
10978;BME280;5542;48.272;10.794;2023-07-13T11:17:33;95960.84;;;25.58;39.10
10978;BME280;5542;48.272;10.794;2023-07-13T11:20:23;95952.78;;;25.84;37.36
10978;BME280;5542;48.272;10.794;2023-07-13T11:25:50;95953.56;;;25.93;36.28
10978;BME280;5542;48.272;10.794;2023-07-13T11:28:21;95961.03;;;25.78;38.85
10978;BME280;5542;48.272;10.794;2023-07-13T11:30:53;95964.63;;;25.83;38.95
10978;BME280;5542;48.272;10.794;2023-07-13T11:36:13;95964.66;;;25.65;38.15
10978;BME280;5542;48.272;10.794;2023-07-13T11:38:41;95962.91;;;25.52;38.64
10978;BME280;5542;48.272;10.794;2023-07-13T11:41:15;95973.69;;;25.43;39.19
10978;BME280;5542;48.272;10.794;2023-07-13T11:43:43;95969.72;;;25.23;37.85
10978;BME280;5542;48.272;10.794;2023-07-13T11:46:15;95965.72;;;24.95;38.91
10978;BME280;5542;48.272;10.794;2023-07-13T11:48:44;95969.81;;;24.84;40.66
10978;BME280;5542;48.272;10.794;2023-07-13T11:51:18;95973.25;;;24.75;40.21
10978;BME280;5542;48.272;10.794;2023-07-13T11:53:48;95970.59;;;24.84;39.47
10978;BME280;5542;48.272;10.794;2023-07-13T11:56:16;95967.88;;;24.75;38.94
10978;BME280;5542;48.272;10.794;2023-07-13T11:58:43;95963.28;;;24.76;38.97
10978;BME280;5542;48.272;10.794;2023-07-13T12:01:18;95962.47;;;24.67;39.78
10978;BME280;5542;48.272;10.794;2023-07-13T12:03:46;95958.19;;;24.57;38.82
10978;BME280;5542;48.272;10.794;2023-07-13T12:06:25;95959.78;;;24.67;38.22
10978;BME280;5542;48.272;10.794;2023-07-13T12:08:56;95957.75;;;24.72;39.05
10978;BME280;5542;48.272;10.794;2023-07-13T12:11:24;95968.19;;;24.65;39.32
10978;BME280;5542;48.272;10.794;2023-07-13T12:13:50;95960.25;;;24.60;39.45
10978;BME280;5542;48.272;10.794;2023-07-13T12:16:24;95964.16;;;24.54;40.62
10978;BME280;5542;48.272;10.794;2023-07-13T12:18:52;95957.88;;;24.27;40.65
10978;BME280;5542;48.272;10.794;2023-07-13T12:21:22;95959.13;;;24.21;41.87
10978;BME280;5542;48.272;10.794;2023-07-13T12:23:50;95956.16;;;24.32;41.65
10978;BME280;5542;48.272;10.794;2023-07-13T12:26:18;95955.31;;;24.53;40.97
10978;BME280;5542;48.272;10.794;2023-07-13T12:28:48;95951.03;;;24.52;40.21
10978;BME280;5542;48.272;10.794;2023-07-13T12:31:31;95939.00;;;24.41;40.77
10978;BME280;5542;48.272;10.794;2023-07-13T12:34:00;95938.72;;;24.51;43.08
10978;BME280;5542;48.272;10.794;2023-07-13T12:36:29;95934.31;;;24.56;41.22
10978;BME280;5542;48.272;10.794;2023-07-13T12:39:10;95917.09;;;24.74;40.60
10978;BME280;5542;48.272;10.794;2023-07-13T12:41:38;95926.44;;;24.76;40.83
10978;BME280;5542;48.272;10.794;2023-07-13T12:44:10;95911.88;;;24.86;39.91
10978;BME280;5542;48.272;10.794;2023-07-13T12:46:38;95914.41;;;24.65;39.18
10978;BME280;5542;48.272;10.794;2023-07-13T12:49:05;95924.66;;;24.55;40.21
10978;BME280;5542;48.272;10.794;2023-07-13T12:51:33;95915.19;;;24.66;41.19
10978;BME280;5542;48.272;10.794;2023-07-13T12:54:07;95921.41;;;24.84;40.50
10978;BME280;5542;48.272;10.794;2023-07-13T12:56:39;95916.50;;;25.03;39.60
10978;BME280;5542;48.272;10.794;2023-07-13T12:59:08;95917.50;;;25.07;39.86
10978;BME280;5542;48.272;10.794;2023-07-13T13:01:42;95906.56;;;25.12;39.26
10978;BME280;5542;48.272;10.794;2023-07-13T13:04:09;95908.31;;;25.17;40.02
10978;BME280;5542;48.272;10.794;2023-07-13T13:06:36;95906.88;;;25.37;39.67
10978;BME280;5542;48.272;10.794;2023-07-13T13:09:11;95908.13;;;25.48;40.34
10978;BME280;5542;48.272;10.794;2023-07-13T13:11:38;95904.91;;;25.63;39.41
10978;BME280;5542;48.272;10.794;2023-07-13T13:14:05;95899.97;;;25.91;37.58